This demonstration page uses our WeatherBlox Daily Observations layout. Learn more.

Left ArrowRight Arrow

Hourly Observations for May 5, 2020

Temp ( °F °C ) Dew Point ( °F °C ) Humidity (%) Winds ( mph kmh ) Pressure ( in mb ) Visibility ( mi km ) Precip ( " mm )
12:51 am 00:51 Clear 67 19.4 24 -4.4 20 20 NNW 7 11 29.8 1009 10 16.0934 0 0
1:51 am 01:51 Clear 65 18.3 24 -4.4 21 21 S 3 6 29.81 1009 10 16.0934 0 0
2:51 am 02:51 Clear 59 15 23 -5 25 25 ESE 5 7 29.83 1010 10 16.0934 0 0
3:51 am 03:51 Clear 57 13.9 23 -5 27 27 ESE 5 7 29.84 1011 10 16.0934 0 0
4:51 am 04:51 Clear 56 13.3 23 -5 28 28 SE 5 7 29.85 1011 10 16.0934 0 0
6:51 am 06:51 Sunny 61 16.1 26 -3.3 26 26 S 6 9 29.91 1013 10 16.0934 0 0
7:51 am 07:51 Sunny 69 20.6 29 -1.7 22 22 SE 7 11 29.91 1013 10 16.0934 0 0
8:51 am 08:51 Sunny 78 25.6 28 -2.2 16 16 SE 10 17 29.91 1013 10 16.0934 0 0
9:51 am 09:51 Sunny 84 28.9 27 -2.8 12 12 SE 9 15 29.9 1013 10 16.0934 0 0
10:51 am 10:51 Sunny 88 31.1 28 -2.2 11 11 VRB 7 11 29.89 1012 10 16.0934 0 0
11:51 am 11:51 Sunny 92 33.3 27 -2.8 10 10 SE 10 17 29.86 1011 10 16.0934 0 0
12:51 pm 12:51 Sunny 93 33.9 23 -5 8 8 S 6 9 29.85 1011 10 16.0934 0 0
1:51 pm 13:51 Sunny 95 35 25 -3.9 8 8 VRB 5 7 29.83 1010 10 16.0934 0 0
2:51 pm 14:51 Sunny 98 36.7 26 -3.3 8 8 E 8 13 29.8 1009 10 16.0934 0 0
3:51 pm 15:51 Sunny 97 36.1 26 -3.3 8 8 Calm 29.79 1009 10 16.0934 0 0
4:51 pm 16:51 Sunny 98 36.7 25 -3.9 7 7 NW 7 11 29.78 1008 10 16.0934 0 0
5:51 pm 17:51 Sunny 97 36.1 24 -4.4 7 7 Calm 29.78 1008 10 16.0934 0 0
6:51 pm 18:51 Sunny 93 33.9 25 -3.9 8 8 WNW 3 6 29.78 1008 10 16.0934 0 0
7:51 pm 19:51 Clear 82 27.8 25 -3.9 12 12 NW 9 15 29.8 1009 10 16.0934 0 0
8:51 pm 20:51 Clear 80 26.7 25 -3.9 13 13 N 8 13 29.82 1010 10 16.0934 0 0
9:51 pm 21:51 Clear 78 25.6 23 -5 13 13 WNW 9 15 29.83 1010 10 16.0934 0 0
10:51 pm 22:51 Clear 74 23.3 23 -5 15 15 NW 8 13 29.84 1010 10 16.0934 0 0
11:51 pm 23:51 Clear 73 22.8 26 -3.3 17 17 SE 5 7 29.84 1011 10 16.0934 0 0

Powered by AerisWeather